Time;durP1;ratioP1;P1;durP2;ratioP2;P2;SDS_P1;SDS_P2;PMS_P1;PMS_P2;Temp;Humidity;BMP_temperature;BMP_pressure;BME280_temperature;BME280_humidity;BME280_pressure;Samples;Min_cycle;Max_cycle;Signal;HPM_P1;HPM_P2
2022/08/28 00:00:23;;;;;;;14.48;7.15;;;;;;;21.41;59.44;99037.31;4994843;28;20041;-86
2022/08/28 00:02:49;;;;;;;13.65;7.65;;;;;;;21.31;60.56;99061.78;4996368;28;20088;-85
2022/08/28 00:05:17;;;;;;;16.52;8.10;;;;;;;21.27;60.93;99060.19;4995080;28;20530;-85
2022/08/28 00:07:43;;;;;;;23.92;8.63;;;;;;;21.12;61.41;99060.31;4976536;28;20481;-85
2022/08/28 00:10:11;;;;;;;19.73;8.43;;;;;;;21.13;61.74;99058.25;4976735;28;20553;-85
2022/08/28 00:12:38;;;;;;;22.33;8.75;;;;;;;21.16;61.51;99061.09;4976756;28;20026;-85
2022/08/28 00:15:07;;;;;;;18.23;8.88;;;;;;;20.96;62.28;99042.94;4982563;28;20026;-85
2022/08/28 00:17:32;;;;;;;22.00;8.95;;;;;;;20.96;62.55;99046.63;4994720;28;20030;-85
2022/08/28 00:19:58;;;;;;;24.65;8.68;;;;;;;20.72;63.31;99052.00;4995407;28;20025;-86
2022/08/28 00:22:23;;;;;;;15.10;7.78;;;;;;;20.53;64.17;99064.69;4995964;28;20432;-85
2022/08/28 00:24:49;;;;;;;12.18;8.07;;;;;;;20.68;63.72;99061.78;4995924;28;20026;-85
2022/08/28 00:29:58;;;;;;;27.65;9.23;;;;;;;20.75;63.61;99067.41;5013667;28;20417;-85
2022/08/28 00:32:24;;;;;;;29.55;8.63;;;;;;;20.62;64.13;99053.66;4994364;28;20025;-85
2022/08/28 00:34:50;;;;;;;22.00;8.60;;;;;;;20.30;65.20;99056.66;4995794;28;20459;-85
2022/08/28 00:37:16;;;;;;;14.60;8.95;;;;;;;20.50;64.49;99059.81;4995132;28;20177;-85
2022/08/28 00:39:42;;;;;;;27.50;8.63;;;;;;;20.64;64.83;99072.34;4995659;28;20042;-85
2022/08/28 00:42:09;;;;;;;19.73;9.23;;;;;;;20.54;65.08;99054.94;5013039;28;20528;-85
2022/08/28 00:44:35;;;;;;;16.00;8.48;;;;;;;20.69;64.78;99069.06;4994074;28;20033;-85
2022/08/28 00:47:01;;;;;;;19.77;8.65;;;;;;;20.63;64.84;99057.34;4994319;28;20052;-86
2022/08/28 00:49:30;;;;;;;18.40;9.57;;;;;;;20.68;64.80;99061.78;5011613;28;20473;-86
2022/08/28 00:52:04;;;;;;;26.23;9.00;;;;;;;20.56;64.83;99075.22;4995457;28;20488;-85
2022/08/28 00:54:32;;;;;;;13.07;8.32;;;;;;;20.46;64.98;99053.34;4994965;28;20026;-85
2022/08/28 00:57:01;;;;;;;26.50;9.02;;;;;;;20.37;64.97;99048.13;4994357;28;20508;-85
2022/08/28 00:59:27;;;;;;;21.83;7.88;;;;;;;20.31;65.10;99053.41;4994923;28;20060;-85
2022/08/28 01:01:55;;;;;;;22.92;9.48;;;;;;;20.08;65.40;99036.88;5012134;28;20512;-85
2022/08/28 01:04:23;;;;;;;18.65;9.23;;;;;;;20.13;65.39;99042.13;4993656;28;20424;-85
2022/08/28 01:06:53;;;;;;;20.45;8.40;;;;;;;20.42;64.90;99061.88;4994628;28;20034;-85
2022/08/28 01:09:20;;;;;;;14.50;8.80;;;;;;;20.54;64.48;99069.16;4995248;28;20475;-85
2022/08/28 01:11:48;;;;;;;18.35;8.75;;;;;;;20.40;64.58;99064.34;5012585;28;20475;-85
2022/08/28 01:14:17;;;;;;;35.60;9.52;;;;;;;20.32;65.03;99082.63;4995034;28;20088;-85
2022/08/28 01:16:44;;;;;;;19.30;8.50;;;;;;;20.18;65.07;99063.63;4993598;28;20029;-85
2022/08/28 01:19:19;;;;;;;15.50;8.52;;;;;;;20.25;65.05;99072.09;4994891;28;20028;-85
2022/08/28 01:21:52;;;;;;;13.45;8.57;;;;;;;20.28;65.68;99081.81;4994253;28;20463;-85
2022/08/28 01:24:18;;;;;;;18.52;8.50;;;;;;;20.45;65.02;99083.81;5012548;28;20037;-85
2022/08/28 01:26:44;;;;;;;23.27;9.05;;;;;;;20.75;63.77;99082.44;4984469;28;20524;-85
2022/08/28 01:29:11;;;;;;;15.27;8.10;;;;;;;20.83;62.58;99046.28;4991481;28;20026;-85
2022/08/28 01:31:37;;;;;;;19.25;7.95;;;;;;;21.35;61.97;99084.50;4978099;28;20026;-85
2022/08/28 01:34:03;;;;;;;15.80;7.88;;;;;;;21.57;60.77;99090.00;4974964;28;20058;-86
2022/08/28 01:36:29;;;;;;;35.17;9.98;;;;;;;21.32;60.97;99051.22;5000341;28;20026;-85
2022/08/28 01:39:02;;;;;;;25.55;9.07;;;;;;;21.70;60.48;99099.69;5011638;28;20092;-86
2022/08/28 01:41:28;;;;;;;31.40;8.90;;;;;;;21.52;60.23;99071.34;4994586;28;20033;-85
2022/08/28 01:43:54;;;;;;;28.00;9.18;;;;;;;21.78;59.69;99096.78;4993502;28;20054;-85
2022/08/28 01:46:20;;;;;;;14.18;8.40;;;;;;;21.58;59.86;99094.47;4992892;28;20022;-85
2022/08/28 01:48:46;;;;;;;12.90;8.23;;;;;;;20.81;63.07;99097.03;4993361;28;20409;-85
2022/08/28 01:51:12;;;;;;;16.45;9.85;;;;;;;20.74;63.38;99080.00;4993359;28;20503;-85
2022/08/28 01:53:38;;;;;;;14.90;9.25;;;;;;;20.52;63.78;99067.94;4993268;28;20022;-86
2022/08/28 01:56:10;;;;;;;21.42;9.75;;;;;;;20.03;66.05;99083.53;4992828;28;20029;-85
2022/08/28 01:58:37;;;;;;;18.83;9.55;;;;;;;20.01;65.68;99046.22;4993765;28;20037;-86
2022/08/28 02:01:02;;;;;;;16.67;8.95;;;;;;;20.50;64.79;99088.22;4993327;28;20021;-85
2022/08/28 02:03:28;;;;;;;18.63;8.70;;;;;;;20.81;63.57;99085.69;4994250;28;20029;-86
2022/08/28 02:05:53;;;;;;;16.40;9.13;;;;;;;20.66;63.21;99084.13;4993745;28;20022;-85
2022/08/28 02:08:19;;;;;;;22.55;9.13;;;;;;;20.68;62.61;99053.25;4994177;28;20026;-85
2022/08/28 02:10:55;;;;;;;18.52;7.93;;;;;;;20.96;61.95;99057.16;4993660;28;20057;-86
2022/08/28 02:13:21;;;;;;;16.98;9.05;;;;;;;21.33;61.46;99086.94;5011913;28;20053;-85
2022/08/28 02:15:47;;;;;;;17.10;8.52;;;;;;;21.37;61.22;99087.75;4993469;28;20057;-85
2022/08/28 02:18:13;;;;;;;16.02;9.25;;;;;;;21.56;60.77;99094.09;5002602;28;20084;-85
2022/08/28 02:20:41;;;;;;;20.75;9.20;;;;;;;21.46;61.26;99090.13;4994138;28;20026;-86
2022/08/28 02:23:07;;;;;;;14.07;8.45;;;;;;;21.42;61.63;99098.66;4994050;28;20080;-86
2022/08/28 02:25:32;;;;;;;17.40;9.25;;;;;;;21.37;61.91;99099.13;4993307;28;20029;-86
2022/08/28 02:27:58;;;;;;;17.02;8.88;;;;;;;21.26;61.88;99087.03;5010845;28;20088;-86
2022/08/28 02:30:23;;;;;;;18.67;9.27;;;;;;;20.73;63.10;99084.88;5010559;28;20037;-86
2022/08/28 02:32:50;;;;;;;23.08;8.18;;;;;;;20.85;63.06;99097.81;4993881;28;20037;-86
2022/08/28 02:35:16;;;;;;;15.52;8.95;;;;;;;20.63;63.27;99088.59;4993759;28;20044;-85
2022/08/28 02:37:43;;;;;;;16.35;7.82;;;;;;;20.43;63.59;99085.44;4974415;28;20136;-85
2022/08/28 02:40:12;;;;;;;19.90;9.52;;;;;;;20.45;64.33;99100.03;4974261;28;20558;-86
2022/08/28 02:42:39;;;;;;;19.00;8.50;;;;;;;19.90;65.22;99068.09;4982085;28;20086;-85
2022/08/28 02:45:07;;;;;;;15.15;8.18;;;;;;;19.63;66.33;99072.22;4992440;28;20481;-85
2022/08/28 02:47:32;;;;;;;20.60;8.65;;;;;;;19.32;67.54;99085.19;5011047;28;20033;-85
2022/08/28 02:49:58;;;;;;;14.15;10.23;;;;;;;19.00;68.64;99075.41;4993634;28;20037;-86
2022/08/28 02:52:23;;;;;;;13.85;8.50;;;;;;;18.97;68.94;99076.19;4993930;28;20121;-85
2022/08/28 02:54:49;;;;;;;19.95;9.20;;;;;;;19.21;68.16;99086.00;4993802;28;20041;-85
2022/08/28 02:57:15;;;;;;;14.30;8.48;;;;;;;19.00;68.72;99080.28;4993538;28;20602;-85
2022/08/28 02:59:42;;;;;;;18.65;8.55;;;;;;;19.07;68.76;99077.47;4993431;28;20088;-86
2022/08/28 03:02:07;;;;;;;25.92;10.63;;;;;;;19.17;67.37;99045.47;4993668;28;20029;-85
2022/08/28 03:04:35;;;;;;;18.08;10.55;;;;;;;19.35;67.69;99092.88;4993984;28;20022;-85
2022/08/28 03:07:02;;;;;;;49.40;9.75;;;;;;;19.28;67.61;99090.03;5010552;28;20100;-85
2022/08/28 03:09:28;;;;;;;17.20;8.57;;;;;;;18.92;69.47;99093.59;4993883;28;20022;-85
2022/08/28 03:11:53;;;;;;;14.48;8.57;;;;;;;19.11;68.69;99092.44;4993571;28;20033;-85
2022/08/28 03:14:22;;;;;;;27.73;8.90;;;;;;;19.13;68.28;99095.69;4984042;28;20023;-86
2022/08/28 03:16:48;;;;;;;17.20;8.75;;;;;;;19.04;68.84;99098.09;5003394;28;20034;-85
2022/08/28 03:19:14;;;;;;;18.73;8.13;;;;;;;19.18;68.45;99100.94;5011330;28;20137;-86
2022/08/28 03:21:40;;;;;;;13.60;8.40;;;;;;;19.29;67.93;99100.97;4993505;28;20022;-86
2022/08/28 03:24:06;;;;;;;20.33;9.55;;;;;;;19.43;67.19;99102.19;4996917;28;20096;-86
2022/08/28 03:26:32;;;;;;;22.23;8.85;;;;;;;19.41;67.37;99102.59;4997034;28;20096;-86
2022/08/28 03:28:58;;;;;;;13.55;8.65;;;;;;;19.70;66.62;99110.28;4996944;28;20026;-86
2022/08/28 03:31:27;;;;;;;26.83;8.93;;;;;;;19.67;66.37;99105.44;4996816;28;20026;-86
2022/08/28 03:33:53;;;;;;;13.38;8.07;;;;;;;19.87;65.25;99109.47;4997045;28;20022;-85
2022/08/28 03:36:25;;;;;;;18.02;7.80;;;;;;;19.78;64.99;99118.38;5014431;28;20484;-85
2022/08/28 03:38:53;;;;;;;31.55;9.80;;;;;;;19.82;65.21;99112.72;4996918;28;20467;-85
2022/08/28 03:41:20;;;;;;;18.92;8.20;;;;;;;19.49;66.00;99098.56;4996855;28;20481;-85
2022/08/28 03:43:46;;;;;;;19.35;9.50;;;;;;;19.25;66.67;99120.03;4996094;28;20462;-85
2022/08/28 03:46:14;;;;;;;21.23;8.32;;;;;;;19.06;67.37;99104.16;4995922;28;20068;-86
2022/08/28 03:48:40;;;;;;;15.85;9.48;;;;;;;18.77;68.77;99119.06;4996994;28;20029;-85
2022/08/28 03:51:13;;;;;;;19.10;9.27;;;;;;;18.39;70.26;99121.31;4996856;28;20022;-86
2022/08/28 03:53:39;;;;;;;17.40;8.93;;;;;;;18.43;70.94;99129.84;4996900;28;20026;-85
2022/08/28 03:56:09;;;;;;;15.48;9.25;;;;;;;18.27;71.59;99136.63;4996325;28;20069;-86
2022/08/28 03:58:35;;;;;;;;;;;;;;;18.25;72.16;99133.41;5015899;28;20109;-86
2022/08/28 04:01:01;;;;;;;20.80;9.80;;;;;;;17.89;73.24;99133.13;5012587;28;19947;-85
2022/08/28 04:03:26;;;;;;;24.92;9.18;;;;;;;17.97;73.57;99134.78;4979737;28;20037;-85
2022/08/28 04:05:52;;;;;;;15.90;9.35;;;;;;;17.95;73.43;99138.03;5013403;28;20030;-86
2022/08/28 04:08:19;;;;;;;19.33;9.90;;;;;;;17.87;74.37;99149.69;4998246;28;20108;-85
2022/08/28 04:10:46;;;;;;;20.35;9.23;;;;;;;17.91;74.03;99142.84;5015005;28;20025;-85
2022/08/28 04:13:13;;;;;;;20.10;8.65;;;;;;;18.10;73.55;99147.47;4995407;28;20034;-85
2022/08/28 04:15:40;;;;;;;17.23;9.20;;;;;;;18.19;73.13;99151.94;4994047;28;20516;-85
2022/08/28 04:18:06;;;;;;;20.70;9.82;;;;;;;18.16;73.23;99144.25;4995828;28;20527;-85
2022/08/28 04:20:32;;;;;;;13.80;9.68;;;;;;;17.67;75.78;99139.41;4995889;28;20057;-85
2022/08/28 04:22:57;;;;;;;25.58;11.23;;;;;;;17.54;76.73;99138.94;4995331;28;20028;-85
2022/08/28 04:25:23;;;;;;;15.40;10.43;;;;;;;17.52;76.56;99129.22;4995904;28;20025;-85
2022/08/28 04:27:50;;;;;;;27.13;10.07;;;;;;;17.83;75.60;99141.97;4994910;28;20136;-85
2022/08/28 04:30:16;;;;;;;20.15;9.07;;;;;;;18.16;74.39;99144.25;4989533;28;20045;-86
2022/08/28 04:32:41;;;;;;;30.42;11.10;;;;;;;18.36;72.97;99139.94;4985397;28;20022;-86
2022/08/28 04:35:09;;;;;;;13.60;8.52;;;;;;;18.50;71.61;99149.69;4982398;28;20030;-86
2022/08/28 04:37:35;;;;;;;19.52;9.07;;;;;;;18.35;72.34;99143.16;4989185;28;20045;-86
2022/08/28 04:40:04;;;;;;;19.83;8.55;;;;;;;18.53;71.51;99143.22;5003286;28;20026;-86
2022/08/28 04:42:30;;;;;;;33.35;8.90;;;;;;;18.20;72.21;99109.09;4981655;28;20045;-85
2022/08/28 04:44:58;;;;;;;16.90;10.50;;;;;;;18.86;71.07;99144.19;4994533;28;20036;-86
2022/08/28 04:47:25;;;;;;;15.65;9.27;;;;;;;18.60;71.61;99137.63;4991697;28;20504;-86
2022/08/28 04:49:50;;;;;;;19.73;9.02;;;;;;;18.66;71.84;99138.84;4976589;28;20061;-86
2022/08/28 04:52:16;;;;;;;19.73;9.10;;;;;;;18.87;71.06;99144.97;4976575;28;20084;-85
2022/08/28 04:54:41;;;;;;;22.20;10.23;;;;;;;19.03;71.36;99159.66;4979524;28;20029;-86
2022/08/28 04:57:07;;;;;;;13.02;8.15;;;;;;;19.10;71.11;99147.53;4995718;28;20030;-86
2022/08/28 04:59:33;;;;;;;17.52;9.55;;;;;;;19.25;70.46;99153.22;4995782;28;20045;-86
2022/08/28 05:01:58;;;;;;;29.30;9.75;;;;;;;19.38;70.45;99156.50;4996568;28;20096;-86
2022/08/28 05:04:25;;;;;;;18.40;9.48;;;;;;;19.61;70.71;99153.25;4996035;28;20476;-86
2022/08/28 05:06:51;;;;;;;26.02;10.75;;;;;;;19.56;71.81;99167.84;4995733;28;20034;-86
2022/08/28 05:09:18;;;;;;;18.23;10.45;;;;;;;19.55;70.23;99167.03;4995640;28;20028;-86
2022/08/28 05:11:45;;;;;;;32.40;10.52;;;;;;;19.68;71.18;99158.13;4995833;28;20037;-85
2022/08/28 05:14:11;;;;;;;20.33;10.60;;;;;;;19.83;70.55;99154.06;4995333;28;20026;-85
2022/08/28 05:16:46;;;;;;;17.02;9.65;;;;;;;19.95;69.98;99164.22;4994728;28;20029;-86
2022/08/28 05:19:13;;;;;;;14.48;9.40;;;;;;;20.04;68.87;99158.94;4994875;28;20539;-86
2022/08/28 05:21:38;;;;;;;27.13;10.63;;;;;;;20.19;67.35;99162.56;5012389;28;20464;-86
2022/08/28 05:24:05;;;;;;;19.42;8.95;;;;;;;20.24;66.88;99164.19;4988715;28;20030;-86
2022/08/28 05:26:31;;;;;;;13.95;9.05;;;;;;;20.54;66.31;99177.09;4984710;28;20054;-87
2022/08/28 05:28:58;;;;;;;27.63;9.05;;;;;;;20.59;64.58;99148.25;5012294;28;20026;-86
2022/08/28 05:31:27;;;;;;;11.30;8.95;;;;;;;20.75;63.44;99144.13;4994707;28;20080;-86
2022/08/28 05:33:53;;;;;;;14.20;8.55;;;;;;;21.17;62.79;99176.44;4994632;28;20037;-86
2022/08/28 05:36:21;;;;;;;21.40;9.15;;;;;;;20.97;61.97;99132.69;4978805;28;20471;-86
2022/08/28 05:38:48;;;;;;;26.35;10.02;;;;;;;21.07;61.72;99139.56;4986047;28;20030;-86
2022/08/28 05:41:22;;;;;;;22.10;8.75;;;;;;;21.22;61.37;99151.63;4994585;28;20065;-86
2022/08/28 05:43:48;;;;;;;16.15;8.90;;;;;;;21.54;60.55;99187.59;4994455;28;20058;-86
2022/08/28 05:46:15;;;;;;;20.67;9.82;;;;;;;21.61;60.34;99187.56;5010192;28;20029;-86
2022/08/28 05:48:41;;;;;;;14.65;7.82;;;;;;;21.41;59.46;99167.34;4994686;28;20032;-86
2022/08/28 05:51:09;;;;;;;15.77;7.93;;;;;;;21.65;58.82;99190.34;5012087;28;20025;-87
2022/08/28 05:53:40;;;;;;;15.95;8.52;;;;;;;21.77;58.37;99194.78;4994337;28;20092;-86
2022/08/28 05:56:17;;;;;;;22.25;9.02;;;;;;;21.54;58.94;99190.44;4994476;28;20029;-86
2022/08/28 05:58:43;;;;;;;23.70;9.18;;;;;;;21.27;59.19;99145.50;4994398;28;20105;-86
2022/08/28 06:01:11;;;;;;;20.75;9.65;;;;;;;21.83;58.98;99193.91;4996277;28;20412;-87
2022/08/28 06:03:39;;;;;;;20.88;8.95;;;;;;;21.78;57.98;99200.06;4997348;28;20033;-88
2022/08/28 06:06:05;;;;;;;22.42;8.20;;;;;;;21.77;58.45;99189.09;4994642;28;20026;-88
2022/08/28 06:08:34;;;;;;;15.10;8.88;;;;;;;21.87;57.78;99186.13;4993687;28;20412;-86
2022/08/28 06:11:02;;;;;;;15.95;8.23;;;;;;;22.13;58.48;99197.31;4994160;28;20034;-86
2022/08/28 06:13:32;;;;;;;21.80;7.80;;;;;;;22.15;58.43;99203.41;4991146;28;20022;-86
2022/08/28 06:15:57;;;;;;;20.00;10.00;;;;;;;22.18;58.33;99187.50;4979605;28;20087;-86
2022/08/28 06:18:24;;;;;;;12.63;7.63;;;;;;;22.46;57.45;99200.66;4981137;28;20022;-86
2022/08/28 06:20:52;;;;;;;17.25;7.82;;;;;;;22.49;57.28;99174.19;5011164;28;20436;-86
2022/08/28 06:23:19;;;;;;;14.35;7.10;;;;;;;22.31;56.69;99131.63;4993916;28;20022;-86
2022/08/28 06:25:47;;;;;;;12.73;8.43;;;;;;;22.82;56.43;99199.47;4993737;28;20099;-87
2022/08/28 06:28:16;;;;;;;19.58;9.45;;;;;;;23.01;56.88;99195.16;4986419;28;20014;-87
2022/08/28 06:30:44;;;;;;;28.65;8.80;;;;;;;23.04;55.74;99197.13;4984071;28;20034;-86
2022/08/28 06:33:11;;;;;;;18.38;7.68;;;;;;;23.12;55.79;99169.34;4990202;28;20026;-87
2022/08/28 06:35:46;;;;;;;14.85;7.85;;;;;;;23.26;54.22;99199.72;4984329;28;20022;-86
2022/08/28 06:38:12;;;;;;;21.13;7.20;;;;;;;23.25;54.90;99176.09;4985616;28;20538;-87
2022/08/28 06:40:42;;;;;;;16.08;7.97;;;;;;;23.56;54.25;99183.81;4992040;28;20025;-88
2022/08/28 06:43:08;;;;;;;15.73;7.07;;;;;;;23.49;52.16;99172.50;4993662;28;20050;-87
2022/08/28 06:45:39;;;;;;;25.35;7.30;;;;;;;23.64;52.70;99171.03;4993464;28;20026;-87
2022/08/28 06:48:06;;;;;;;15.75;7.15;;;;;;;24.04;51.90;99186.75;4993340;28;20026;-87
2022/08/28 06:50:32;;;;;;;11.40;7.10;;;;;;;24.23;52.30;99185.19;4993667;28;20022;-86
2022/08/28 06:52:57;;;;;;;10.82;7.40;;;;;;;24.17;51.95;99175.50;4993326;28;20049;-87
2022/08/28 06:55:23;;;;;;;22.08;8.73;;;;;;;24.25;52.82;99169.22;4993528;28;20453;-86
2022/08/28 06:57:49;;;;;;;18.35;8.85;;;;;;;24.45;50.57;99168.44;4996671;28;20026;-87
2022/08/28 07:00:14;;;;;;;22.38;7.82;;;;;;;24.41;50.61;99184.84;4997725;28;20022;-87
2022/08/28 07:02:40;;;;;;;11.93;7.55;;;;;;;24.56;49.42;99190.28;4997693;28;20116;-87
2022/08/28 07:05:07;;;;;;;20.23;7.88;;;;;;;24.72;50.29;99176.06;5015285;28;20025;-88
2022/08/28 07:07:32;;;;;;;20.05;7.53;;;;;;;24.88;48.79;99189.66;4994566;28;20036;-87
2022/08/28 07:09:58;;;;;;;14.98;6.57;;;;;;;25.01;48.45;99189.81;4996608;28;20112;-88
2022/08/28 07:12:24;;;;;;;12.93;7.50;;;;;;;25.00;47.26;99170.22;5000812;28;20037;-87
2022/08/28 07:14:49;;;;;;;20.92;7.88;;;;;;;25.20;47.89;99181.63;4996817;28;20030;-87
2022/08/28 07:17:15;;;;;;;13.35;6.57;;;;;;;25.40;46.85;99180.78;4997152;28;20022;-88
2022/08/28 07:19:40;;;;;;;15.82;6.68;;;;;;;25.37;47.31;99183.31;4993229;28;20413;-89
2022/08/28 07:22:06;;;;;;;14.98;8.00;;;;;;;25.44;47.74;99184.38;4990306;28;20045;-88
2022/08/28 07:24:31;;;;;;;21.27;7.15;;;;;;;25.53;46.80;99181.75;5014898;28;20026;-87
2022/08/28 07:26:57;;;;;;;17.67;7.55;;;;;;;25.22;46.52;99150.53;4978780;28;20026;-87
2022/08/28 07:29:22;;;;;;;18.00;7.50;;;;;;;25.54;47.02;99156.78;4992531;28;20021;-87
2022/08/28 07:31:50;;;;;;;16.42;6.80;;;;;;;25.84;45.63;99178.53;5014525;28;20021;-86
2022/08/28 07:34:19;;;;;;;15.07;7.07;;;;;;;26.06;45.75;99180.84;4996666;28;20026;-87
2022/08/28 07:36:45;;;;;;;16.05;7.32;;;;;;;26.21;45.19;99185.00;4996294;28;20049;-87
2022/08/28 07:39:12;;;;;;;12.60;6.28;;;;;;;26.16;44.81;99148.25;4996893;28;20076;-87
2022/08/28 07:41:41;;;;;;;19.40;7.85;;;;;;;26.41;44.59;99188.97;5002763;28;20423;-87
2022/08/28 07:46:55;;;;;;;17.98;7.50;;;;;;;26.44;44.28;99182.34;4999634;28;20032;-87
2022/08/28 07:49:22;;;;;;;23.63;7.80;;;;;;;26.33;44.01;99171.97;5008946;28;20401;-87
2022/08/28 07:51:47;;;;;;;17.05;6.97;;;;;;;26.30;43.91;99152.81;5019908;28;20084;-88
2022/08/28 07:54:16;;;;;;;13.52;6.65;;;;;;;26.26;43.81;99140.66;5015325;28;20492;-85
2022/08/28 07:56:42;;;;;;;18.52;6.50;;;;;;;26.87;44.30;99177.47;5014698;28;20500;-87
2022/08/28 07:59:10;;;;;;;18.40;6.65;;;;;;;26.99;41.48;99152.97;5011498;28;20121;-87
2022/08/28 08:01:40;;;;;;;21.20;6.22;;;;;;;27.26;40.70;99152.50;4994880;28;20030;-87
2022/08/28 08:04:11;;;;;;;14.23;6.18;;;;;;;26.94;39.49;99114.16;4995976;28;20061;-87
2022/08/28 08:06:39;;;;;;;13.60;6.32;;;;;;;27.25;39.56;99179.59;4982158;28;20503;-87
2022/08/28 08:09:07;;;;;;;11.20;6.35;;;;;;;27.36;39.52;99181.34;4994988;28;20037;-87
2022/08/28 08:11:32;;;;;;;14.57;6.80;;;;;;;27.58;38.68;99167.16;4995603;28;20508;-87
2022/08/28 08:14:03;;;;;;;13.88;6.57;;;;;;;27.63;37.90;99180.09;4995563;28;20030;-87
2022/08/28 08:16:33;;;;;;;17.33;5.97;;;;;;;27.42;37.40;99168.81;4996713;28;20034;-87
2022/08/28 08:19:02;;;;;;;9.35;5.63;;;;;;;27.80;38.90;99178.72;4995909;28;20030;-87
2022/08/28 08:21:28;;;;;;;15.43;6.68;;;;;;;28.02;38.03;99175.13;4996379;28;20053;-87
2022/08/28 08:23:54;;;;;;;23.70;11.90;;;;;;;28.30;38.99;99169.69;4996570;28;20121;-87
2022/08/28 08:26:24;;;;;;;63.45;25.42;;;;;;;28.58;38.77;99158.41;5002312;28;20061;-87
2022/08/28 08:28:50;;;;;;;17.00;8.80;;;;;;;28.81;39.12;99168.69;4989694;28;20523;-88
2022/08/28 08:31:20;;;;;;;22.60;8.23;;;;;;;28.92;37.08;99159.63;4992788;28;20460;-86
2022/08/28 08:33:49;;;;;;;13.63;7.20;;;;;;;29.09;36.39;99162.31;4995621;28;20033;-87
2022/08/28 08:36:18;;;;;;;14.85;6.60;;;;;;;29.21;36.07;99164.28;5011984;28;20503;-87
2022/08/28 08:38:43;;;;;;;14.10;6.13;;;;;;;29.13;34.97;99125.53;4992895;28;20420;-87
2022/08/28 08:41:46;;;;;;;19.05;6.15;;;;;;;29.27;34.30;99170.25;5010523;28;20037;-86
2022/08/28 08:44:25;;;;;;;19.77;8.00;;;;;;;28.97;35.43;99147.53;4992061;28;20038;-87
2022/08/28 08:47:02;;;;;;;17.50;7.67;;;;;;;29.31;36.52;99159.38;4991345;28;20080;-88
2022/08/28 08:49:42;;;;;;;23.77;7.25;;;;;;;29.55;35.20;99162.53;4994563;28;20014;-87
2022/08/28 08:52:23;;;;;;;18.90;6.22;;;;;;;29.53;34.86;99161.44;4988762;28;20064;-87
2022/08/28 08:55:06;;;;;;;15.32;7.05;;;;;;;29.68;35.67;99164.50;5000830;28;20032;-88
2022/08/28 08:57:37;;;;;;;21.15;6.32;;;;;;;29.80;34.47;99151.25;4985316;28;20029;-87
2022/08/28 09:00:07;;;;;;;17.35;6.95;;;;;;;29.59;34.68;99132.78;5012810;28;20139;-87
2022/08/28 09:02:37;;;;;;;11.93;6.25;;;;;;;30.00;34.59;99159.47;4995460;28;20419;-88
2022/08/28 09:05:11;;;;;;;13.80;5.93;;;;;;;30.02;33.95;99154.03;4994518;28;20483;-87
2022/08/28 09:08:01;;;;;;;28.48;7.80;;;;;;;30.25;33.98;99148.94;4994593;28;20037;-87
2022/08/28 09:10:47;;;;;;;13.52;5.72;;;;;;;30.29;33.38;99158.28;4994991;28;20416;-88
2022/08/28 09:13:45;;;;;;;12.30;5.00;;;;;;;30.42;32.78;99142.88;4975627;28;20034;-87
2022/08/28 09:16:30;;;;;;;12.68;5.60;;;;;;;30.22;33.15;99144.94;4983540;28;20501;-88
2022/08/28 09:18:58;;;;;;;28.83;6.35;;;;;;;30.39;33.10;99130.22;4994966;28;20441;-87
2022/08/28 09:21:31;;;;;;;17.83;6.25;;;;;;;30.81;33.39;99132.44;4994039;28;20104;-87
2022/08/28 09:24:01;;;;;;;7.47;5.82;;;;;;;30.42;32.80;99099.63;4993623;28;20492;-88
2022/08/28 09:26:26;;;;;;;17.65;6.32;;;;;;;30.71;33.47;99128.00;4994076;28;20030;-87
2022/08/28 09:29:06;;;;;;;23.15;6.43;;;;;;;31.16;32.75;99127.53;4994950;28;20524;-88
2022/08/28 09:31:40;;;;;;;8.52;5.95;;;;;;;31.10;32.76;99110.88;5011631;28;20104;-87
2022/08/28 09:34:27;;;;;;;12.30;6.47;;;;;;;31.18;32.85;99133.63;4996206;28;20036;-88
2022/08/28 09:36:54;;;;;;;11.60;5.03;;;;;;;31.14;32.46;99130.94;4994048;28;20038;-88
2022/08/28 09:39:21;;;;;;;20.35;6.03;;;;;;;31.36;33.14;99132.78;4992297;28;20018;-88
2022/08/28 09:45:03;;;;;;;15.32;6.57;;;;;;;31.39;32.11;99137.59;5021326;28;20539;-88
2022/08/28 09:47:43;;;;;;;14.38;5.47;;;;;;;31.48;32.00;99119.41;5004818;28;20413;-87
2022/08/28 09:50:34;;;;;;;22.73;6.13;;;;;;;31.89;30.50;99122.72;5014244;28;20401;-87
2022/08/28 09:53:08;;;;;;;18.52;5.90;;;;;;;31.70;30.65;99112.56;4992327;28;20040;-87
2022/08/28 09:55:55;;;;;;;16.83;5.95;;;;;;;31.65;30.76;99122.69;5006151;28;20033;-88
2022/08/28 09:58:25;;;;;;;14.52;5.93;;;;;;;31.47;30.73;99121.50;5004693;28;20124;-88
2022/08/28 10:00:59;;;;;;;21.27;5.97;;;;;;;31.62;31.50;99107.13;4994397;28;20033;-87
2022/08/28 10:03:39;;;;;;;17.33;6.53;;;;;;;31.79;30.55;99109.63;4993944;28;20128;-87
2022/08/28 10:06:12;;;;;;;;;;;;;;;32.06;30.29;99113.63;5006130;28;20033;-88
2022/08/28 10:08:54;;;;;;;25.42;5.75;;;;;;;32.00;29.63;99116.41;4994250;28;20376;-87
2022/08/28 10:11:46;;;;;;;17.10;6.28;;;;;;;31.79;30.26;99098.06;4994101;28;20485;-87
2022/08/28 10:15:05;;;;;;;22.23;6.07;;;;;;;32.02;30.32;99121.69;4994800;28;20493;-87
2022/08/28 10:18:08;;;;;;;9.73;5.13;;;;;;;32.38;29.66;99121.94;4932691;29;20038;-88
2022/08/28 10:21:02;;;;;;;27.25;6.82;;;;;;;32.28;30.07;99110.41;5003861;28;20061;-87
2022/08/28 10:23:47;;;;;;;13.63;5.20;;;;;;;32.45;29.97;99107.06;4994125;28;20032;-87
2022/08/28 10:26:21;;;;;;;11.82;5.28;;;;;;;32.69;29.20;99106.19;5011539;28;20026;-88
2022/08/28 10:29:06;;;;;;;16.17;5.97;;;;;;;32.62;28.66;99099.50;4990145;28;20018;-88
2022/08/28 10:31:42;;;;;;;12.32;5.60;;;;;;;32.43;28.92;99100.97;5007585;28;20408;-87
2022/08/28 10:34:23;;;;;;;12.25;5.55;;;;;;;32.50;27.65;99094.81;5011339;28;20508;-87
2022/08/28 10:37:02;;;;;;;11.38;5.50;;;;;;;32.77;27.46;99078.47;5011399;28;20026;-88
2022/08/28 10:39:47;;;;;;;17.92;5.55;;;;;;;32.94;27.70;99089.56;4993580;28;20394;-88
2022/08/28 10:42:21;;;;;;;20.15;6.10;;;;;;;32.81;28.09;99081.16;4982178;28;20124;-88
2022/08/28 10:45:12;;;;;;;14.88;5.20;;;;;;;32.95;27.71;99073.81;4993702;28;20159;-88
2022/08/28 10:47:41;;;;;;;21.92;5.63;;;;;;;33.17;27.60;99071.25;4999069;28;20026;-88
2022/08/28 10:50:14;;;;;;;13.20;5.85;;;;;;;32.96;27.65;99069.59;4975601;28;20026;-87
2022/08/28 10:53:06;;;;;;;20.67;5.72;;;;;;;33.08;28.01;99065.59;5010036;28;20121;-87
2022/08/28 10:55:50;;;;;;;19.05;6.57;;;;;;;33.39;27.63;99078.69;4986488;28;20050;-87
2022/08/28 10:58:15;;;;;;;20.60;6.53;;;;;;;33.23;27.63;99056.84;4993401;28;20034;-88
2022/08/28 11:00:44;;;;;;;22.65;7.00;;;;;;;33.27;28.42;99059.53;4992948;28;20041;-87
2022/08/28 11:03:13;;;;;;;20.55;6.40;;;;;;;33.55;27.76;99067.91;4993295;28;20077;-87
2022/08/28 11:06:03;;;;;;;19.80;5.43;;;;;;;33.74;27.62;99057.59;4996152;28;20087;-87
2022/08/28 11:08:31;;;;;;;16.40;7.85;;;;;;;33.77;27.10;99052.09;4986667;28;20095;-88
2022/08/28 11:11:01;;;;;;;23.58;6.70;;;;;;;33.96;28.02;99046.78;5007966;28;20029;-88
2022/08/28 11:13:56;;;;;;;14.60;6.97;;;;;;;34.15;26.60;99050.22;4996156;28;20029;-88
2022/08/28 11:16:27;;;;;;;25.50;6.13;;;;;;;34.17;27.14;99050.53;4990985;28;20122;-88
2022/08/28 11:19:22;;;;;;;20.23;5.88;;;;;;;34.34;26.84;99049.91;4991985;28;20065;-87
2022/08/28 11:22:11;;;;;;;13.27;6.10;;;;;;;34.19;27.07;99047.09;4985512;28;20033;-87
2022/08/28 11:24:44;;;;;;;25.90;7.78;;;;;;;34.17;27.73;99051.31;4992906;28;20032;-87
2022/08/28 11:27:29;;;;;;;26.58;7.53;;;;;;;34.18;27.03;99043.41;4992946;28;20026;-87
2022/08/28 11:30:08;;;;;;;14.10;6.40;;;;;;;34.16;26.38;99037.31;4993349;28;20044;-88
2022/08/28 11:32:33;;;;;;;18.60;6.20;;;;;;;34.36;25.75;99047.28;4993351;28;20080;-87
2022/08/28 11:35:03;;;;;;;18.13;5.90;;;;;;;34.43;25.82;99038.91;4993024;28;20040;-88
2022/08/28 11:37:47;;;;;;;40.45;8.43;;;;;;;34.32;26.76;99040.91;4991496;28;20041;-87
2022/08/28 11:40:31;;;;;;;17.45;6.03;;;;;;;34.30;26.51;99044.31;4980243;28;20030;-87
2022/08/28 11:43:15;;;;;;;19.27;5.50;;;;;;;34.38;27.89;99047.56;4992462;28;20053;-87
2022/08/28 11:45:49;;;;;;;11.77;5.63;;;;;;;34.20;26.93;99039.97;4996782;28;20460;-88